sensor_id;sensor_type;location;lat;lon;timestamp;temperature;humidity
21807;DHT22;11065;50.786;7.840;2022-07-17T00:02:23;16.40;38.90
21807;DHT22;11065;50.786;7.840;2022-07-17T00:04:50;16.30;38.90
21807;DHT22;11065;50.786;7.840;2022-07-17T00:07:17;16.20;38.90
21807;DHT22;11065;50.786;7.840;2022-07-17T00:09:44;16.20;39.00
21807;DHT22;11065;50.786;7.840;2022-07-17T00:12:11;16.10;39.00
21807;DHT22;11065;50.786;7.840;2022-07-17T00:14:38;16.10;39.00
21807;DHT22;11065;50.786;7.840;2022-07-17T00:17:05;16.10;39.10
21807;DHT22;11065;50.786;7.840;2022-07-17T00:19:32;16.00;39.20
21807;DHT22;11065;50.786;7.840;2022-07-17T00:21:59;15.90;39.30
21807;DHT22;11065;50.786;7.840;2022-07-17T00:24:26;15.90;39.40
21807;DHT22;11065;50.786;7.840;2022-07-17T00:26:53;15.80;39.40
21807;DHT22;11065;50.786;7.840;2022-07-17T00:29:20;15.80;39.50
21807;DHT22;11065;50.786;7.840;2022-07-17T00:31:47;15.70;39.60
21807;DHT22;11065;50.786;7.840;2022-07-17T00:34:15;15.70;39.60
21807;DHT22;11065;50.786;7.840;2022-07-17T00:36:42;15.70;39.70
21807;DHT22;11065;50.786;7.840;2022-07-17T00:39:09;15.60;39.70
21807;DHT22;11065;50.786;7.840;2022-07-17T00:41:36;15.60;39.90
21807;DHT22;11065;50.786;7.840;2022-07-17T00:44:05;15.50;40.30
21807;DHT22;11065;50.786;7.840;2022-07-17T00:46:32;15.50;40.00
21807;DHT22;11065;50.786;7.840;2022-07-17T00:48:59;15.40;40.00
21807;DHT22;11065;50.786;7.840;2022-07-17T00:51:26;15.40;40.10
21807;DHT22;11065;50.786;7.840;2022-07-17T00:53:55;15.30;40.10
21807;DHT22;11065;50.786;7.840;2022-07-17T00:56:22;15.30;40.30
21807;DHT22;11065;50.786;7.840;2022-07-17T00:58:50;15.20;40.20
21807;DHT22;11065;50.786;7.840;2022-07-17T01:01:17;15.20;40.30
21807;DHT22;11065;50.786;7.840;2022-07-17T01:03:44;15.20;40.40
21807;DHT22;11065;50.786;7.840;2022-07-17T01:06:11;15.10;40.40
21807;DHT22;11065;50.786;7.840;2022-07-17T01:08:39;15.10;40.60
21807;DHT22;11065;50.786;7.840;2022-07-17T01:11:07;15.10;40.70
21807;DHT22;11065;50.786;7.840;2022-07-17T01:13:34;15.00;40.60
21807;DHT22;11065;50.786;7.840;2022-07-17T01:16:01;14.90;41.10
21807;DHT22;11065;50.786;7.840;2022-07-17T01:18:28;14.90;40.70
21807;DHT22;11065;50.786;7.840;2022-07-17T01:20:55;14.90;40.90
21807;DHT22;11065;50.786;7.840;2022-07-17T01:23:21;14.90;40.90
21807;DHT22;11065;50.786;7.840;2022-07-17T01:25:48;14.80;41.00
21807;DHT22;11065;50.786;7.840;2022-07-17T01:28:15;14.80;41.00
21807;DHT22;11065;50.786;7.840;2022-07-17T01:30:50;14.70;41.00
21807;DHT22;11065;50.786;7.840;2022-07-17T01:33:18;14.70;41.30
21807;DHT22;11065;50.786;7.840;2022-07-17T01:35:46;14.70;41.10
21807;DHT22;11065;50.786;7.840;2022-07-17T01:38:13;14.60;41.20
21807;DHT22;11065;50.786;7.840;2022-07-17T01:40:40;14.60;41.30
21807;DHT22;11065;50.786;7.840;2022-07-17T01:43:07;14.60;41.40
21807;DHT22;11065;50.786;7.840;2022-07-17T01:45:34;14.50;41.40
21807;DHT22;11065;50.786;7.840;2022-07-17T01:48:01;14.50;41.40
21807;DHT22;11065;50.786;7.840;2022-07-17T01:50:28;14.50;41.50
21807;DHT22;11065;50.786;7.840;2022-07-17T01:52:55;14.40;41.50
21807;DHT22;11065;50.786;7.840;2022-07-17T01:55:21;14.30;41.60
21807;DHT22;11065;50.786;7.840;2022-07-17T01:57:48;14.30;41.60
21807;DHT22;11065;50.786;7.840;2022-07-17T02:00:17;14.30;41.70
21807;DHT22;11065;50.786;7.840;2022-07-17T02:02:45;14.20;41.80
21807;DHT22;11065;50.786;7.840;2022-07-17T02:05:12;14.20;41.90
21807;DHT22;11065;50.786;7.840;2022-07-17T02:07:39;14.20;42.00
21807;DHT22;11065;50.786;7.840;2022-07-17T02:10:08;14.20;41.90
21807;DHT22;11065;50.786;7.840;2022-07-17T02:12:37;14.10;42.00
21807;DHT22;11065;50.786;7.840;2022-07-17T02:15:05;14.10;42.00
21807;DHT22;11065;50.786;7.840;2022-07-17T02:17:37;14.00;42.00
21807;DHT22;11065;50.786;7.840;2022-07-17T02:20:04;14.00;42.10
21807;DHT22;11065;50.786;7.840;2022-07-17T02:22:32;14.00;42.10
21807;DHT22;11065;50.786;7.840;2022-07-17T02:24:59;13.90;42.20
21807;DHT22;11065;50.786;7.840;2022-07-17T02:27:25;13.90;42.20
21807;DHT22;11065;50.786;7.840;2022-07-17T02:29:52;13.90;42.30
21807;DHT22;11065;50.786;7.840;2022-07-17T02:32:52;13.80;42.40
21807;DHT22;11065;50.786;7.840;2022-07-17T02:35:21;13.80;43.00
21807;DHT22;11065;50.786;7.840;2022-07-17T02:37:48;13.80;42.40
21807;DHT22;11065;50.786;7.840;2022-07-17T02:40:15;13.70;42.50
21807;DHT22;11065;50.786;7.840;2022-07-17T02:42:42;13.70;42.60
21807;DHT22;11065;50.786;7.840;2022-07-17T02:45:09;13.70;42.60
21807;DHT22;11065;50.786;7.840;2022-07-17T02:47:37;13.60;42.70
21807;DHT22;11065;50.786;7.840;2022-07-17T02:50:05;13.60;42.80
21807;DHT22;11065;50.786;7.840;2022-07-17T02:52:33;13.60;42.80
21807;DHT22;11065;50.786;7.840;2022-07-17T02:55:00;13.50;42.80
21807;DHT22;11065;50.786;7.840;2022-07-17T02:57:27;13.50;42.80
21807;DHT22;11065;50.786;7.840;2022-07-17T02:59:53;13.50;42.90
21807;DHT22;11065;50.786;7.840;2022-07-17T03:02:21;13.40;42.90
21807;DHT22;11065;50.786;7.840;2022-07-17T03:04:48;13.40;43.00
21807;DHT22;11065;50.786;7.840;2022-07-17T03:07:15;13.40;43.00
21807;DHT22;11065;50.786;7.840;2022-07-17T03:09:41;13.30;43.10
21807;DHT22;11065;50.786;7.840;2022-07-17T03:12:08;13.30;43.10
21807;DHT22;11065;50.786;7.840;2022-07-17T03:14:35;13.30;43.20
21807;DHT22;11065;50.786;7.840;2022-07-17T03:17:02;13.20;43.20
21807;DHT22;11065;50.786;7.840;2022-07-17T03:19:29;13.20;43.20
21807;DHT22;11065;50.786;7.840;2022-07-17T03:21:56;13.20;43.30
21807;DHT22;11065;50.786;7.840;2022-07-17T03:24:23;13.20;43.30
21807;DHT22;11065;50.786;7.840;2022-07-17T03:26:50;13.20;43.40
21807;DHT22;11065;50.786;7.840;2022-07-17T03:29:17;13.10;43.40
21807;DHT22;11065;50.786;7.840;2022-07-17T03:31:45;13.10;43.50
21807;DHT22;11065;50.786;7.840;2022-07-17T03:34:12;13.10;43.50
21807;DHT22;11065;50.786;7.840;2022-07-17T03:36:40;13.10;43.60
21807;DHT22;11065;50.786;7.840;2022-07-17T03:39:07;13.00;43.60
21807;DHT22;11065;50.786;7.840;2022-07-17T03:41:34;13.00;43.70
21807;DHT22;11065;50.786;7.840;2022-07-17T03:44:00;13.00;43.80
21807;DHT22;11065;50.786;7.840;2022-07-17T03:46:27;13.00;43.80
21807;DHT22;11065;50.786;7.840;2022-07-17T03:48:54;12.90;43.80
21807;DHT22;11065;50.786;7.840;2022-07-17T03:51:22;12.90;43.80
21807;DHT22;11065;50.786;7.840;2022-07-17T03:53:48;12.90;43.90
21807;DHT22;11065;50.786;7.840;2022-07-17T03:56:15;12.90;44.00
21807;DHT22;11065;50.786;7.840;2022-07-17T03:58:42;12.90;44.10
21807;DHT22;11065;50.786;7.840;2022-07-17T04:01:09;12.90;44.20
21807;DHT22;11065;50.786;7.840;2022-07-17T04:03:36;12.80;44.10
21807;DHT22;11065;50.786;7.840;2022-07-17T04:06:03;12.80;44.20
21807;DHT22;11065;50.786;7.840;2022-07-17T04:08:30;12.80;44.20
21807;DHT22;11065;50.786;7.840;2022-07-17T04:10:57;12.80;44.30
21807;DHT22;11065;50.786;7.840;2022-07-17T04:13:24;12.80;44.40
21807;DHT22;11065;50.786;7.840;2022-07-17T04:15:51;12.80;44.30
21807;DHT22;11065;50.786;7.840;2022-07-17T04:18:29;12.70;44.40
21807;DHT22;11065;50.786;7.840;2022-07-17T04:20:59;12.70;44.50
21807;DHT22;11065;50.786;7.840;2022-07-17T04:23:26;12.70;44.60
21807;DHT22;11065;50.786;7.840;2022-07-17T04:25:54;12.80;44.60
21807;DHT22;11065;50.786;7.840;2022-07-17T04:28:21;12.70;44.60
21807;DHT22;11065;50.786;7.840;2022-07-17T04:30:48;12.70;44.70
21807;DHT22;11065;50.786;7.840;2022-07-17T04:33:15;12.70;44.70
21807;DHT22;11065;50.786;7.840;2022-07-17T04:35:42;12.70;44.80
21807;DHT22;11065;50.786;7.840;2022-07-17T04:38:10;12.70;44.90
21807;DHT22;11065;50.786;7.840;2022-07-17T04:40:38;12.70;44.90
21807;DHT22;11065;50.786;7.840;2022-07-17T04:43:05;12.70;45.00
21807;DHT22;11065;50.786;7.840;2022-07-17T04:45:32;12.70;45.10
21807;DHT22;11065;50.786;7.840;2022-07-17T04:48:00;12.70;45.10
21807;DHT22;11065;50.786;7.840;2022-07-17T04:50:27;12.80;45.30
21807;DHT22;11065;50.786;7.840;2022-07-17T04:52:53;12.80;45.40
21807;DHT22;11065;50.786;7.840;2022-07-17T04:55:20;12.70;45.50
21807;DHT22;11065;50.786;7.840;2022-07-17T04:57:48;12.70;45.60
21807;DHT22;11065;50.786;7.840;2022-07-17T05:00:15;12.70;45.70
21807;DHT22;11065;50.786;7.840;2022-07-17T05:02:42;12.70;45.70
21807;DHT22;11065;50.786;7.840;2022-07-17T05:05:09;12.70;45.80
21807;DHT22;11065;50.786;7.840;2022-07-17T05:07:36;12.80;45.90
21807;DHT22;11065;50.786;7.840;2022-07-17T05:10:04;12.80;46.00
21807;DHT22;11065;50.786;7.840;2022-07-17T05:12:31;12.80;46.00
21807;DHT22;11065;50.786;7.840;2022-07-17T05:14:58;12.80;46.00
21807;DHT22;11065;50.786;7.840;2022-07-17T05:17:26;12.80;46.10
21807;DHT22;11065;50.786;7.840;2022-07-17T05:19:53;12.90;46.30
21807;DHT22;11065;50.786;7.840;2022-07-17T05:22:20;12.90;46.20
21807;DHT22;11065;50.786;7.840;2022-07-17T05:24:46;12.90;46.70
21807;DHT22;11065;50.786;7.840;2022-07-17T05:27:13;12.90;46.50
21807;DHT22;11065;50.786;7.840;2022-07-17T05:29:40;12.90;46.70
21807;DHT22;11065;50.786;7.840;2022-07-17T05:32:07;12.90;46.40
21807;DHT22;11065;50.786;7.840;2022-07-17T05:34:34;12.90;46.40
21807;DHT22;11065;50.786;7.840;2022-07-17T05:37:00;12.90;46.60
21807;DHT22;11065;50.786;7.840;2022-07-17T05:39:27;13.00;46.50
21807;DHT22;11065;50.786;7.840;2022-07-17T05:41:54;13.00;46.50
21807;DHT22;11065;50.786;7.840;2022-07-17T05:44:21;13.00;46.60
21807;DHT22;11065;50.786;7.840;2022-07-17T05:46:48;13.10;46.50
21807;DHT22;11065;50.786;7.840;2022-07-17T05:49:15;13.10;46.70
21807;DHT22;11065;50.786;7.840;2022-07-17T05:51:41;13.20;46.90
21807;DHT22;11065;50.786;7.840;2022-07-17T05:54:08;13.20;46.80
21807;DHT22;11065;50.786;7.840;2022-07-17T05:56:35;13.30;46.90
21807;DHT22;11065;50.786;7.840;2022-07-17T05:59:02;13.30;46.80
21807;DHT22;11065;50.786;7.840;2022-07-17T06:01:29;13.40;46.80
21807;DHT22;11065;50.786;7.840;2022-07-17T06:03:57;13.40;46.80
21807;DHT22;11065;50.786;7.840;2022-07-17T06:06:24;13.50;46.90
21807;DHT22;11065;50.786;7.840;2022-07-17T06:08:50;13.50;46.80
21807;DHT22;11065;50.786;7.840;2022-07-17T06:11:17;13.60;46.80
21807;DHT22;11065;50.786;7.840;2022-07-17T06:13:52;13.70;46.80
21807;DHT22;11065;50.786;7.840;2022-07-17T06:16:19;13.80;46.80
21807;DHT22;11065;50.786;7.840;2022-07-17T06:18:46;13.80;47.10
21807;DHT22;11065;50.786;7.840;2022-07-17T06:21:13;13.90;47.10
21807;DHT22;11065;50.786;7.840;2022-07-17T06:23:40;13.90;47.70
21807;DHT22;11065;50.786;7.840;2022-07-17T06:26:07;14.00;47.20
21807;DHT22;11065;50.786;7.840;2022-07-17T06:28:34;14.00;47.20
21807;DHT22;11065;50.786;7.840;2022-07-17T06:31:00;14.10;47.40
21807;DHT22;11065;50.786;7.840;2022-07-17T06:33:27;14.10;47.40
21807;DHT22;11065;50.786;7.840;2022-07-17T06:35:54;14.20;47.30
21807;DHT22;11065;50.786;7.840;2022-07-17T06:38:21;14.30;47.30
21807;DHT22;11065;50.786;7.840;2022-07-17T06:40:48;14.40;47.20
21807;DHT22;11065;50.786;7.840;2022-07-17T06:43:16;14.40;47.20
21807;DHT22;11065;50.786;7.840;2022-07-17T06:45:43;14.50;47.20
21807;DHT22;11065;50.786;7.840;2022-07-17T06:48:10;14.60;47.20
21807;DHT22;11065;50.786;7.840;2022-07-17T06:50:37;14.60;47.10
21807;DHT22;11065;50.786;7.840;2022-07-17T06:53:04;14.70;47.20
21807;DHT22;11065;50.786;7.840;2022-07-17T06:55:30;14.80;47.50
21807;DHT22;11065;50.786;7.840;2022-07-17T06:57:57;14.90;47.20
21807;DHT22;11065;50.786;7.840;2022-07-17T07:00:24;15.00;47.50
21807;DHT22;11065;50.786;7.840;2022-07-17T07:02:51;15.10;47.70
21807;DHT22;11065;50.786;7.840;2022-07-17T07:05:18;15.20;47.40
21807;DHT22;11065;50.786;7.840;2022-07-17T07:07:45;15.20;47.30
21807;DHT22;11065;50.786;7.840;2022-07-17T07:10:12;15.30;47.20
21807;DHT22;11065;50.786;7.840;2022-07-17T07:12:39;15.40;47.20
21807;DHT22;11065;50.786;7.840;2022-07-17T07:15:06;15.50;47.30
21807;DHT22;11065;50.786;7.840;2022-07-17T07:17:38;15.60;47.20
21807;DHT22;11065;50.786;7.840;2022-07-17T07:20:06;15.70;47.20
21807;DHT22;11065;50.786;7.840;2022-07-17T07:22:34;15.80;47.10
21807;DHT22;11065;50.786;7.840;2022-07-17T07:25:01;15.80;47.10
21807;DHT22;11065;50.786;7.840;2022-07-17T07:27:28;15.90;47.10
21807;DHT22;11065;50.786;7.840;2022-07-17T07:29:55;16.00;47.00
21807;DHT22;11065;50.786;7.840;2022-07-17T07:32:21;16.10;47.00
21807;DHT22;11065;50.786;7.840;2022-07-17T07:34:48;16.20;47.30
21807;DHT22;11065;50.786;7.840;2022-07-17T07:37:15;16.40;47.50
21807;DHT22;11065;50.786;7.840;2022-07-17T07:39:42;16.40;47.20
21807;DHT22;11065;50.786;7.840;2022-07-17T07:42:10;16.60;47.10
21807;DHT22;11065;50.786;7.840;2022-07-17T07:44:37;16.70;47.00
21807;DHT22;11065;50.786;7.840;2022-07-17T07:47:04;16.80;46.90
21807;DHT22;11065;50.786;7.840;2022-07-17T07:49:31;16.90;46.80
21807;DHT22;11065;50.786;7.840;2022-07-17T07:52:05;17.00;46.70
21807;DHT22;11065;50.786;7.840;2022-07-17T07:54:33;17.20;46.70
21807;DHT22;11065;50.786;7.840;2022-07-17T07:57:01;17.30;46.80
21807;DHT22;11065;50.786;7.840;2022-07-17T07:59:29;17.40;46.70
21807;DHT22;11065;50.786;7.840;2022-07-17T08:02:00;17.50;46.60
21807;DHT22;11065;50.786;7.840;2022-07-17T08:04:27;17.60;46.60
21807;DHT22;11065;50.786;7.840;2022-07-17T08:06:55;17.80;46.40
21807;DHT22;11065;50.786;7.840;2022-07-17T08:09:22;17.90;46.40
21807;DHT22;11065;50.786;7.840;2022-07-17T08:11:48;18.00;46.30
21807;DHT22;11065;50.786;7.840;2022-07-17T08:14:16;18.10;46.10
21807;DHT22;11065;50.786;7.840;2022-07-17T08:16:43;18.30;46.10
21807;DHT22;11065;50.786;7.840;2022-07-17T08:19:10;18.40;46.00
21807;DHT22;11065;50.786;7.840;2022-07-17T08:21:37;18.60;45.80
21807;DHT22;11065;50.786;7.840;2022-07-17T08:24:04;18.70;45.70
21807;DHT22;11065;50.786;7.840;2022-07-17T08:26:31;18.80;45.40
21807;DHT22;11065;50.786;7.840;2022-07-17T08:28:58;19.00;45.20
21807;DHT22;11065;50.786;7.840;2022-07-17T08:31:26;19.20;45.00
21807;DHT22;11065;50.786;7.840;2022-07-17T08:33:53;19.30;44.40
21807;DHT22;11065;50.786;7.840;2022-07-17T08:36:20;19.50;44.40
21807;DHT22;11065;50.786;7.840;2022-07-17T08:38:47;19.60;44.10
21807;DHT22;11065;50.786;7.840;2022-07-17T08:41:15;19.80;43.90
21807;DHT22;11065;50.786;7.840;2022-07-17T08:43:43;19.90;43.80
21807;DHT22;11065;50.786;7.840;2022-07-17T08:46:11;20.10;43.60
21807;DHT22;11065;50.786;7.840;2022-07-17T08:48:45;20.20;43.40
21807;DHT22;11065;50.786;7.840;2022-07-17T08:51:18;20.40;43.00
21807;DHT22;11065;50.786;7.840;2022-07-17T08:53:44;20.50;42.90
21807;DHT22;11065;50.786;7.840;2022-07-17T08:56:11;20.60;42.90
21807;DHT22;11065;50.786;7.840;2022-07-17T08:58:38;20.80;42.70
21807;DHT22;11065;50.786;7.840;2022-07-17T09:01:06;20.90;42.60
21807;DHT22;11065;50.786;7.840;2022-07-17T09:03:33;21.00;40.80
21807;DHT22;11065;50.786;7.840;2022-07-17T09:06:18;21.20;42.00
21807;DHT22;11065;50.786;7.840;2022-07-17T09:08:46;21.40;41.80
21807;DHT22;11065;50.786;7.840;2022-07-17T09:11:12;21.60;42.10
21807;DHT22;11065;50.786;7.840;2022-07-17T09:13:45;21.90;42.00
21807;DHT22;11065;50.786;7.840;2022-07-17T09:16:12;22.10;41.90
21807;DHT22;11065;50.786;7.840;2022-07-17T09:18:50;22.40;42.10
21807;DHT22;11065;50.786;7.840;2022-07-17T09:21:24;22.80;42.00
21807;DHT22;11065;50.786;7.840;2022-07-17T09:24:00;23.30;41.90
21807;DHT22;11065;50.786;7.840;2022-07-17T09:26:27;23.80;41.50
21807;DHT22;11065;50.786;7.840;2022-07-17T09:28:55;24.30;42.10
21807;DHT22;11065;50.786;7.840;2022-07-17T09:31:32;25.00;42.10
21807;DHT22;11065;50.786;7.840;2022-07-17T09:34:00;25.60;41.30
21807;DHT22;11065;50.786;7.840;2022-07-17T09:36:27;26.30;41.60
21807;DHT22;11065;50.786;7.840;2022-07-17T09:38:57;27.00;41.30
21807;DHT22;11065;50.786;7.840;2022-07-17T09:41:26;27.70;41.20
21807;DHT22;11065;50.786;7.840;2022-07-17T09:43:56;28.40;41.00
21807;DHT22;11065;50.786;7.840;2022-07-17T09:46:26;29.20;40.60
21807;DHT22;11065;50.786;7.840;2022-07-17T09:48:57;30.00;40.20
21807;DHT22;11065;50.786;7.840;2022-07-17T09:51:35;30.80;39.30
21807;DHT22;11065;50.786;7.840;2022-07-17T09:54:08;31.60;37.60
21807;DHT22;11065;50.786;7.840;2022-07-17T09:56:36;32.20;36.50
21807;DHT22;11065;50.786;7.840;2022-07-17T09:59:10;32.90;36.50
21807;DHT22;11065;50.786;7.840;2022-07-17T10:01:38;33.50;35.90
21807;DHT22;11065;50.786;7.840;2022-07-17T10:04:06;34.10;35.50
21807;DHT22;11065;50.786;7.840;2022-07-17T10:06:33;34.60;35.40
21807;DHT22;11065;50.786;7.840;2022-07-17T10:09:00;35.20;35.00
21807;DHT22;11065;50.786;7.840;2022-07-17T10:11:31;35.70;34.40
21807;DHT22;11065;50.786;7.840;2022-07-17T10:14:08;36.10;33.70
21807;DHT22;11065;50.786;7.840;2022-07-17T10:16:36;36.60;32.10
21807;DHT22;11065;50.786;7.840;2022-07-17T10:19:43;37.00;32.60
21807;DHT22;11065;50.786;7.840;2022-07-17T10:22:10;37.40;31.40
21807;DHT22;11065;50.786;7.840;2022-07-17T10:24:46;37.70;31.40
21807;DHT22;11065;50.786;7.840;2022-07-17T10:27:28;38.00;30.00
21807;DHT22;11065;50.786;7.840;2022-07-17T10:30:07;38.40;30.00
21807;DHT22;11065;50.786;7.840;2022-07-17T10:32:37;38.70;29.20
21807;DHT22;11065;50.786;7.840;2022-07-17T10:35:06;38.90;29.80
21807;DHT22;11065;50.786;7.840;2022-07-17T10:37:39;39.20;29.20
21807;DHT22;11065;50.786;7.840;2022-07-17T10:40:15;39.50;28.80
21807;DHT22;11065;50.786;7.840;2022-07-17T10:47:54;40.30;28.30
21807;DHT22;11065;50.786;7.840;2022-07-17T10:50:30;40.50;27.70
21807;DHT22;11065;50.786;7.840;2022-07-17T10:55:40;40.90;27.20
21807;DHT22;11065;50.786;7.840;2022-07-17T11:00:41;41.10;26.30
21807;DHT22;11065;50.786;7.840;2022-07-17T11:03:12;41.20;26.40
21807;DHT22;11065;50.786;7.840;2022-07-17T11:05:39;41.20;26.30
21807;DHT22;11065;50.786;7.840;2022-07-17T11:08:06;41.20;26.30
21807;DHT22;11065;50.786;7.840;2022-07-17T11:10:36;41.30;26.40
21807;DHT22;11065;50.786;7.840;2022-07-17T11:13:16;41.40;26.10
21807;DHT22;11065;50.786;7.840;2022-07-17T11:15:45;41.50;25.50
21807;DHT22;11065;50.786;7.840;2022-07-17T11:18:20;41.60;26.10
21807;DHT22;11065;50.786;7.840;2022-07-17T11:20:56;41.70;25.80
21807;DHT22;11065;50.786;7.840;2022-07-17T11:23:25;41.90;25.60
21807;DHT22;11065;50.786;7.840;2022-07-17T11:25:54;42.00;25.60
21807;DHT22;11065;50.786;7.840;2022-07-17T11:28:35;42.00;25.50
21807;DHT22;11065;50.786;7.840;2022-07-17T11:31:20;42.20;24.60
21807;DHT22;11065;50.786;7.840;2022-07-17T11:36:31;42.30;25.00
21807;DHT22;11065;50.786;7.840;2022-07-17T11:39:00;42.40;24.10
21807;DHT22;11065;50.786;7.840;2022-07-17T11:41:39;42.30;24.10
21807;DHT22;11065;50.786;7.840;2022-07-17T11:44:16;42.20;24.00
21807;DHT22;11065;50.786;7.840;2022-07-17T11:46:44;42.20;24.50
21807;DHT22;11065;50.786;7.840;2022-07-17T11:49:33;42.10;24.30
21807;DHT22;11065;50.786;7.840;2022-07-17T11:54:53;42.00;23.40
21807;DHT22;11065;50.786;7.840;2022-07-17T11:57:26;42.00;23.50
21807;DHT22;11065;50.786;7.840;2022-07-17T11:59:53;41.90;23.80
21807;DHT22;11065;50.786;7.840;2022-07-17T12:02:31;41.90;23.60
21807;DHT22;11065;50.786;7.840;2022-07-17T12:04:59;41.90;23.70
21807;DHT22;11065;50.786;7.840;2022-07-17T12:10:17;42.10;23.40
21807;DHT22;11065;50.786;7.840;2022-07-17T12:12:56;42.20;23.40
21807;DHT22;11065;50.786;7.840;2022-07-17T12:15:53;42.30;23.30
21807;DHT22;11065;50.786;7.840;2022-07-17T12:18:27;42.40;23.60
21807;DHT22;11065;50.786;7.840;2022-07-17T12:20:57;42.50;23.40
21807;DHT22;11065;50.786;7.840;2022-07-17T12:26:29;42.60;23.10
21807;DHT22;11065;50.786;7.840;2022-07-17T12:28:57;42.70;23.30
21807;DHT22;11065;50.786;7.840;2022-07-17T12:31:46;42.70;23.00
21807;DHT22;11065;50.786;7.840;2022-07-17T12:34:13;42.80;22.90
21807;DHT22;11065;50.786;7.840;2022-07-17T12:36:39;42.80;22.80
21807;DHT22;11065;50.786;7.840;2022-07-17T12:39:06;42.70;22.50
21807;DHT22;11065;50.786;7.840;2022-07-17T12:41:33;42.70;22.50
21807;DHT22;11065;50.786;7.840;2022-07-17T12:44:00;42.50;22.40
21807;DHT22;11065;50.786;7.840;2022-07-17T12:46:27;42.40;22.40
21807;DHT22;11065;50.786;7.840;2022-07-17T12:48:55;42.40;22.60
21807;DHT22;11065;50.786;7.840;2022-07-17T12:51:22;42.30;22.40
21807;DHT22;11065;50.786;7.840;2022-07-17T12:53:56;42.20;22.30
21807;DHT22;11065;50.786;7.840;2022-07-17T12:56:24;42.10;22.00
21807;DHT22;11065;50.786;7.840;2022-07-17T12:58:51;42.10;22.00
21807;DHT22;11065;50.786;7.840;2022-07-17T13:01:23;41.90;21.90
21807;DHT22;11065;50.786;7.840;2022-07-17T13:03:50;41.70;21.40
21807;DHT22;11065;50.786;7.840;2022-07-17T13:06:17;41.40;21.50
21807;DHT22;11065;50.786;7.840;2022-07-17T13:08:44;41.10;21.70
21807;DHT22;11065;50.786;7.840;2022-07-17T13:11:11;40.80;22.20
21807;DHT22;11065;50.786;7.840;2022-07-17T13:13:38;40.70;21.90
21807;DHT22;11065;50.786;7.840;2022-07-17T13:16:09;40.60;22.00
21807;DHT22;11065;50.786;7.840;2022-07-17T13:18:39;40.60;21.90
21807;DHT22;11065;50.786;7.840;2022-07-17T13:21:06;40.50;21.90
21807;DHT22;11065;50.786;7.840;2022-07-17T13:23:34;40.50;21.90
21807;DHT22;11065;50.786;7.840;2022-07-17T13:26:02;40.50;21.90
21807;DHT22;11065;50.786;7.840;2022-07-17T13:28:29;40.40;22.00
21807;DHT22;11065;50.786;7.840;2022-07-17T13:31:00;40.30;22.00
21807;DHT22;11065;50.786;7.840;2022-07-17T13:33:27;40.20;21.70
21807;DHT22;11065;50.786;7.840;2022-07-17T13:35:54;40.10;21.80
21807;DHT22;11065;50.786;7.840;2022-07-17T13:38:21;40.00;21.70
21807;DHT22;11065;50.786;7.840;2022-07-17T13:40:49;39.90;21.50
21807;DHT22;11065;50.786;7.840;2022-07-17T13:43:17;39.80;21.70
21807;DHT22;11065;50.786;7.840;2022-07-17T13:45:44;39.70;21.70
21807;DHT22;11065;50.786;7.840;2022-07-17T13:48:11;39.60;21.60
21807;DHT22;11065;50.786;7.840;2022-07-17T13:50:40;39.50;21.60
21807;DHT22;11065;50.786;7.840;2022-07-17T13:53:07;39.50;21.70
21807;DHT22;11065;50.786;7.840;2022-07-17T13:55:34;39.50;21.80
21807;DHT22;11065;50.786;7.840;2022-07-17T13:58:08;39.50;22.00
21807;DHT22;11065;50.786;7.840;2022-07-17T14:00:35;39.50;22.00
21807;DHT22;11065;50.786;7.840;2022-07-17T14:03:03;39.60;22.00
21807;DHT22;11065;50.786;7.840;2022-07-17T14:05:30;39.60;22.00
21807;DHT22;11065;50.786;7.840;2022-07-17T14:07:57;39.70;22.10
21807;DHT22;11065;50.786;7.840;2022-07-17T14:10:24;39.70;22.00
21807;DHT22;11065;50.786;7.840;2022-07-17T14:12:50;39.80;22.00
21807;DHT22;11065;50.786;7.840;2022-07-17T14:15:18;39.80;21.90
21807;DHT22;11065;50.786;7.840;2022-07-17T14:17:45;39.80;21.70
21807;DHT22;11065;50.786;7.840;2022-07-17T14:20:12;39.70;21.80
21807;DHT22;11065;50.786;7.840;2022-07-17T14:22:39;39.60;21.80
21807;DHT22;11065;50.786;7.840;2022-07-17T14:25:06;39.60;21.70
21807;DHT22;11065;50.786;7.840;2022-07-17T14:27:33;39.50;21.70
21807;DHT22;11065;50.786;7.840;2022-07-17T14:30:00;39.50;21.70
21807;DHT22;11065;50.786;7.840;2022-07-17T14:32:27;39.40;21.70
21807;DHT22;11065;50.786;7.840;2022-07-17T14:34:54;39.30;21.70
21807;DHT22;11065;50.786;7.840;2022-07-17T14:37:20;39.30;21.70
21807;DHT22;11065;50.786;7.840;2022-07-17T14:39:49;39.20;21.70
21807;DHT22;11065;50.786;7.840;2022-07-17T14:42:15;39.20;21.80
21807;DHT22;11065;50.786;7.840;2022-07-17T14:44:42;39.10;21.70
21807;DHT22;11065;50.786;7.840;2022-07-17T14:47:09;39.10;21.70
21807;DHT22;11065;50.786;7.840;2022-07-17T14:49:36;39.00;21.70
21807;DHT22;11065;50.786;7.840;2022-07-17T14:52:04;39.00;21.80
21807;DHT22;11065;50.786;7.840;2022-07-17T14:54:31;38.80;21.60
21807;DHT22;11065;50.786;7.840;2022-07-17T14:56:57;38.80;21.60
21807;DHT22;11065;50.786;7.840;2022-07-17T14:59:26;38.60;21.70
21807;DHT22;11065;50.786;7.840;2022-07-17T15:01:53;38.50;22.00
21807;DHT22;11065;50.786;7.840;2022-07-17T15:04:20;38.50;21.70
21807;DHT22;11065;50.786;7.840;2022-07-17T15:06:50;38.40;21.90
21807;DHT22;11065;50.786;7.840;2022-07-17T15:09:17;38.30;21.90
21807;DHT22;11065;50.786;7.840;2022-07-17T15:11:44;38.30;21.90
21807;DHT22;11065;50.786;7.840;2022-07-17T15:14:11;38.20;22.10
21807;DHT22;11065;50.786;7.840;2022-07-17T15:16:38;38.20;22.00
21807;DHT22;11065;50.786;7.840;2022-07-17T15:19:05;38.30;22.10
21807;DHT22;11065;50.786;7.840;2022-07-17T15:21:32;38.30;22.00
21807;DHT22;11065;50.786;7.840;2022-07-17T15:24:17;38.20;22.00
21807;DHT22;11065;50.786;7.840;2022-07-17T15:26:44;38.20;21.90
21807;DHT22;11065;50.786;7.840;2022-07-17T15:29:14;38.10;22.00
21807;DHT22;11065;50.786;7.840;2022-07-17T15:31:42;38.10;22.20
21807;DHT22;11065;50.786;7.840;2022-07-17T15:34:09;38.00;22.30
21807;DHT22;11065;50.786;7.840;2022-07-17T15:36:36;37.90;22.20
21807;DHT22;11065;50.786;7.840;2022-07-17T15:39:03;37.90;22.10
21807;DHT22;11065;50.786;7.840;2022-07-17T15:41:30;37.90;22.10
21807;DHT22;11065;50.786;7.840;2022-07-17T15:43:57;37.90;22.30
21807;DHT22;11065;50.786;7.840;2022-07-17T15:46:24;37.80;22.30
21807;DHT22;11065;50.786;7.840;2022-07-17T15:48:51;37.90;22.30
21807;DHT22;11065;50.786;7.840;2022-07-17T15:51:20;37.80;22.40
21807;DHT22;11065;50.786;7.840;2022-07-17T15:53:46;37.70;22.30
21807;DHT22;11065;50.786;7.840;2022-07-17T15:56:13;37.80;22.40
21807;DHT22;11065;50.786;7.840;2022-07-17T15:58:40;37.80;22.40
21807;DHT22;11065;50.786;7.840;2022-07-17T16:01:07;37.70;22.40